sensor_id;sensor_type;location;lat;lon;timestamp;temperature;humidity
16968;DHT22;64862;54.398;10.126;2023-02-15T00:00:27;1.60;99.90
16968;DHT22;64862;54.398;10.126;2023-02-15T00:10:30;1.70;99.90
16968;DHT22;64862;54.398;10.126;2023-02-15T00:20:32;1.60;99.90
16968;DHT22;64862;54.398;10.126;2023-02-15T00:30:35;1.60;99.90
16968;DHT22;64862;54.398;10.126;2023-02-15T00:40:37;1.60;99.90
16968;DHT22;64862;54.398;10.126;2023-02-15T00:50:41;1.40;99.90
16968;DHT22;64862;54.398;10.126;2023-02-15T01:00:44;1.30;99.90
16968;DHT22;64862;54.398;10.126;2023-02-15T01:10:48;1.30;99.90
16968;DHT22;64862;54.398;10.126;2023-02-15T01:20:50;1.30;99.90
16968;DHT22;64862;54.398;10.126;2023-02-15T01:30:53;1.40;99.90
16968;DHT22;64862;54.398;10.126;2023-02-15T01:40:55;1.30;99.90
16968;DHT22;64862;54.398;10.126;2023-02-15T01:51:23;1.20;99.90
16968;DHT22;64862;54.398;10.126;2023-02-15T02:01:27;1.20;99.90
16968;DHT22;64862;54.398;10.126;2023-02-15T02:11:33;1.10;99.90
16968;DHT22;64862;54.398;10.126;2023-02-15T02:42:39;2.80;99.90
16968;DHT22;64862;54.398;10.126;2023-02-15T02:52:43;3.00;99.90
16968;DHT22;64862;54.398;10.126;2023-02-15T03:02:49;3.00;99.90
16968;DHT22;64862;54.398;10.126;2023-02-15T03:12:55;3.20;99.90
16968;DHT22;64862;54.398;10.126;2023-02-15T03:23:01;3.20;99.90
16968;DHT22;64862;54.398;10.126;2023-02-15T03:33:05;3.10;99.90
16968;DHT22;64862;54.398;10.126;2023-02-15T03:43:14;3.00;99.90
16968;DHT22;64862;54.398;10.126;2023-02-15T03:53:21;2.80;99.90
16968;DHT22;64862;54.398;10.126;2023-02-15T04:03:31;2.80;99.90
16968;DHT22;64862;54.398;10.126;2023-02-15T04:13:35;2.90;99.90
16968;DHT22;64862;54.398;10.126;2023-02-15T04:23:38;3.00;99.90
16968;DHT22;64862;54.398;10.126;2023-02-15T04:33:58;3.00;99.90
16968;DHT22;64862;54.398;10.126;2023-02-15T04:44:01;3.00;99.90
16968;DHT22;64862;54.398;10.126;2023-02-15T04:54:03;3.00;99.90
16968;DHT22;64862;54.398;10.126;2023-02-15T05:04:07;3.10;99.90
16968;DHT22;64862;54.398;10.126;2023-02-15T05:14:09;3.00;99.90
16968;DHT22;64862;54.398;10.126;2023-02-15T05:24:13;2.90;99.90
16968;DHT22;64862;54.398;10.126;2023-02-15T05:34:32;2.90;99.90
16968;DHT22;64862;54.398;10.126;2023-02-15T05:44:35;2.70;99.90
16968;DHT22;64862;54.398;10.126;2023-02-15T05:54:37;2.70;99.90
16968;DHT22;64862;54.398;10.126;2023-02-15T06:04:41;2.60;99.90
16968;DHT22;64862;54.398;10.126;2023-02-15T06:14:43;2.50;99.90
16968;DHT22;64862;54.398;10.126;2023-02-15T06:24:46;2.60;99.90
16968;DHT22;64862;54.398;10.126;2023-02-15T06:34:48;2.50;99.90
16968;DHT22;64862;54.398;10.126;2023-02-15T06:44:51;2.50;99.90
16968;DHT22;64862;54.398;10.126;2023-02-15T06:54:53;2.40;99.90
16968;DHT22;64862;54.398;10.126;2023-02-15T07:04:57;2.50;99.90
16968;DHT22;64862;54.398;10.126;2023-02-15T07:14:59;2.40;99.90
16968;DHT22;64862;54.398;10.126;2023-02-15T07:25:02;2.50;99.90
16968;DHT22;64862;54.398;10.126;2023-02-15T07:35:05;2.60;99.90
16968;DHT22;64862;54.398;10.126;2023-02-15T07:45:08;2.60;99.90
16968;DHT22;64862;54.398;10.126;2023-02-15T07:55:11;2.80;99.90
16968;DHT22;64862;54.398;10.126;2023-02-15T08:05:15;2.80;99.90
16968;DHT22;64862;54.398;10.126;2023-02-15T08:15:18;2.90;99.90
16968;DHT22;64862;54.398;10.126;2023-02-15T08:25:22;2.90;99.90
16968;DHT22;64862;54.398;10.126;2023-02-15T08:35:24;3.00;99.90
16968;DHT22;64862;54.398;10.126;2023-02-15T08:45:27;3.00;99.90
16968;DHT22;64862;54.398;10.126;2023-02-15T08:55:29;3.30;99.90
16968;DHT22;64862;54.398;10.126;2023-02-15T09:05:32;3.50;99.90
16968;DHT22;64862;54.398;10.126;2023-02-15T09:15:34;3.60;99.90
16968;DHT22;64862;54.398;10.126;2023-02-15T09:25:38;3.70;99.90
16968;DHT22;64862;54.398;10.126;2023-02-15T09:35:40;3.70;99.90
16968;DHT22;64862;54.398;10.126;2023-02-15T09:46:03;3.70;99.90
16968;DHT22;64862;54.398;10.126;2023-02-15T09:56:14;3.80;99.90
16968;DHT22;64862;54.398;10.126;2023-02-15T10:06:38;4.00;99.90
16968;DHT22;64862;54.398;10.126;2023-02-15T10:16:52;4.00;99.90
16968;DHT22;64862;54.398;10.126;2023-02-15T10:27:02;4.30;99.90
16968;DHT22;64862;54.398;10.126;2023-02-15T10:48:04;4.70;99.90
16968;DHT22;64862;54.398;10.126;2023-02-15T10:58:17;5.00;99.90
16968;DHT22;64862;54.398;10.126;2023-02-15T11:08:24;5.20;99.90
16968;DHT22;64862;54.398;10.126;2023-02-15T11:18:32;5.20;99.90
16968;DHT22;64862;54.398;10.126;2023-02-15T11:28:41;5.50;99.90
16968;DHT22;64862;54.398;10.126;2023-02-15T11:38:45;5.50;99.90
16968;DHT22;64862;54.398;10.126;2023-02-15T11:48:49;5.70;99.90
16968;DHT22;64862;54.398;10.126;2023-02-15T11:58:55;5.70;99.90
16968;DHT22;64862;54.398;10.126;2023-02-15T12:09:05;6.00;99.90
16968;DHT22;64862;54.398;10.126;2023-02-15T12:19:26;6.10;99.90
16968;DHT22;64862;54.398;10.126;2023-02-15T12:29:35;6.20;99.90
16968;DHT22;64862;54.398;10.126;2023-02-15T12:39:51;6.20;99.90
16968;DHT22;64862;54.398;10.126;2023-02-15T12:50:08;6.40;99.90
16968;DHT22;64862;54.398;10.126;2023-02-15T13:00:28;6.40;99.90
16968;DHT22;64862;54.398;10.126;2023-02-15T13:10:37;6.40;99.90
16968;DHT22;64862;54.398;10.126;2023-02-15T13:20:40;6.70;99.90
16968;DHT22;64862;54.398;10.126;2023-02-15T13:30:47;6.80;99.90
16968;DHT22;64862;54.398;10.126;2023-02-15T13:40:54;6.70;99.90
16968;DHT22;64862;54.398;10.126;2023-02-15T13:51:07;6.70;99.90
16968;DHT22;64862;54.398;10.126;2023-02-15T14:01:19;6.70;99.90
16968;DHT22;64862;54.398;10.126;2023-02-15T14:11:33;6.80;99.90
16968;DHT22;64862;54.398;10.126;2023-02-15T14:21:43;6.90;99.90
16968;DHT22;64862;54.398;10.126;2023-02-15T14:31:50;6.80;99.90
16968;DHT22;64862;54.398;10.126;2023-02-15T14:41:58;6.70;99.90
16968;DHT22;64862;54.398;10.126;2023-02-15T14:52:04;6.60;99.90
16968;DHT22;64862;54.398;10.126;2023-02-15T15:02:13;6.50;99.90
16968;DHT22;64862;54.398;10.126;2023-02-15T15:12:37;6.60;99.90
16968;DHT22;64862;54.398;10.126;2023-02-15T15:22:41;6.40;99.90
16968;DHT22;64862;54.398;10.126;2023-02-15T15:32:50;6.50;99.90
16968;DHT22;64862;54.398;10.126;2023-02-15T15:53:46;6.60;99.90
16968;DHT22;64862;54.398;10.126;2023-02-15T16:03:52;6.50;99.90
16968;DHT22;64862;54.398;10.126;2023-02-15T16:13:55;6.30;99.90
16968;DHT22;64862;54.398;10.126;2023-02-15T16:24:12;6.20;99.90
16968;DHT22;64862;54.398;10.126;2023-02-15T16:34:19;6.20;99.90
16968;DHT22;64862;54.398;10.126;2023-02-15T16:44:21;6.20;99.90
16968;DHT22;64862;54.398;10.126;2023-02-15T16:54:25;6.10;99.90
16968;DHT22;64862;54.398;10.126;2023-02-15T17:04:30;6.10;99.90
16968;DHT22;64862;54.398;10.126;2023-02-15T17:14:39;6.10;99.90
16968;DHT22;64862;54.398;10.126;2023-02-15T17:24:45;6.00;99.90
16968;DHT22;64862;54.398;10.126;2023-02-15T17:35:06;6.10;99.90
16968;DHT22;64862;54.398;10.126;2023-02-15T17:45:08;6.00;99.90
16968;DHT22;64862;54.398;10.126;2023-02-15T17:55:15;5.90;99.90
16968;DHT22;64862;54.398;10.126;2023-02-15T18:05:34;5.90;99.90
16968;DHT22;64862;54.398;10.126;2023-02-15T18:15:56;5.80;99.90
16968;DHT22;64862;54.398;10.126;2023-02-15T18:25:58;5.80;99.90
16968;DHT22;64862;54.398;10.126;2023-02-15T18:36:02;5.80;99.90
16968;DHT22;64862;54.398;10.126;2023-02-15T18:46:05;5.80;99.90
16968;DHT22;64862;54.398;10.126;2023-02-15T18:56:16;5.80;99.90
16968;DHT22;64862;54.398;10.126;2023-02-15T19:06:20;5.80;99.90
16968;DHT22;64862;54.398;10.126;2023-02-15T19:16:39;5.80;99.90
16968;DHT22;64862;54.398;10.126;2023-02-15T19:26:42;5.70;99.90
16968;DHT22;64862;54.398;10.126;2023-02-15T19:36:47;5.70;99.90
16968;DHT22;64862;54.398;10.126;2023-02-15T19:46:50;5.70;99.90
16968;DHT22;64862;54.398;10.126;2023-02-15T19:56:53;5.70;99.90
16968;DHT22;64862;54.398;10.126;2023-02-15T20:06:59;5.70;99.90
16968;DHT22;64862;54.398;10.126;2023-02-15T20:17:03;5.70;99.90
16968;DHT22;64862;54.398;10.126;2023-02-15T20:27:09;5.60;99.90
16968;DHT22;64862;54.398;10.126;2023-02-15T20:37:21;5.50;99.90
16968;DHT22;64862;54.398;10.126;2023-02-15T20:47:25;5.50;99.90
16968;DHT22;64862;54.398;10.126;2023-02-15T20:57:29;5.50;99.90
16968;DHT22;64862;54.398;10.126;2023-02-15T21:07:31;5.40;99.90
16968;DHT22;64862;54.398;10.126;2023-02-15T21:17:35;5.40;99.90
16968;DHT22;64862;54.398;10.126;2023-02-15T21:27:37;5.40;99.90
16968;DHT22;64862;54.398;10.126;2023-02-15T21:37:42;5.30;99.90
16968;DHT22;64862;54.398;10.126;2023-02-15T21:47:44;5.10;99.90
16968;DHT22;64862;54.398;10.126;2023-02-15T21:57:54;5.00;99.90
16968;DHT22;64862;54.398;10.126;2023-02-15T22:07:56;5.00;99.90
16968;DHT22;64862;54.398;10.126;2023-02-15T22:18:01;4.90;99.90
16968;DHT22;64862;54.398;10.126;2023-02-15T22:28:03;4.90;99.90
16968;DHT22;64862;54.398;10.126;2023-02-15T22:38:07;4.90;99.90
16968;DHT22;64862;54.398;10.126;2023-02-15T22:48:10;5.00;99.90
16968;DHT22;64862;54.398;10.126;2023-02-15T22:58:16;5.10;99.90
16968;DHT22;64862;54.398;10.126;2023-02-15T23:08:19;5.10;99.90
16968;DHT22;64862;54.398;10.126;2023-02-15T23:18:26;5.10;99.90
16968;DHT22;64862;54.398;10.126;2023-02-15T23:28:31;5.00;99.90
16968;DHT22;64862;54.398;10.126;2023-02-15T23:38:36;5.00;99.90
16968;DHT22;64862;54.398;10.126;2023-02-15T23:48:38;5.10;99.90
16968;DHT22;64862;54.398;10.126;2023-02-15T23:58:43;5.00;99.90
